x

South Hatteras - 225 South Of Cape Hatteras (41002) Wave Buoy

11:50am - Tue 27th Jan 2015 All times are EST. -5 hours from GMT.

  • Sig Wave height 16.4ft
  • Swell Direction
  • Peak Period 10s
  • Average Period 8s
  • Wind
    31mph, 40mph gusts
  • Sea Temp 71°f
  • Air Temp 59°f
  • Sea Pressure 1004.8mb
  • South Hatteras - 225 South Of Cape Hatteras
  • South Hatteras - 225 South Of Cape Hatteras

More Historic Weather Station data

Upgrade to MSW Pro to gain access to the past 30 days of data for over 8000 Wavebouys and Weather Stations around the globe.

Join Pro

Comparision Forecast

View Surf forecast
   
Tue 01/27 11:50am 16.5ft 10s 8s 31 40 mph 1004.8mb 71f 59f
10:50am 14ft 9s 7s 31 43 mph 1004.8mb 71f 60f
9:50am 14ft 10s 7s 29 36 mph 1004.9mb 71f 59f
8:50am 13ft 10s 7s 22 34 mph 1005mb 71f 56f
7:50am 13ft 10s 7s 25 31 mph 1004.4mb 72f 57f
6:50am 13ft 9s 7s 25 34 mph 1002.8mb 72f 60f
5:50am 14.5ft 10s 7s 29 36 mph 1001.8mb 72f 61f
4:50am 15ft 10s 8s 31 40 mph 1001.1mb 72f 61f
3:50am 14.5ft 10s 7s 31 38 mph 1001.2mb 72f 62f
2:50am 14ft 10s 7s 29 43 mph 1001.2mb 72f 61f
1:50am 14.5ft 9s 7s 40 51 mph 1000.8mb 72f 59f
12:50am 14ft 10s 7s 31 40 mph 1001.2mb 72f 62f
Mon 01/26 11:50pm 14ft 10s 7s 34 43 mph 1000.9mb 72f 63f
10:50pm 13ft 10s 7s 29 40 mph 1001.3mb 72f 63f
9:50pm 13.5ft 10s 7s 34 40 mph 1001.1mb 72f 64f
8:50pm 12.5ft 9s 7s 31 38 mph 1001.5mb 72f 64f
7:50pm 10ft 7s 6s 29 38 mph 1001.3mb 72f 65f
6:50pm 9.5ft 8s 6s 29 34 mph 1001mb 72f 64f
5:50pm 10.5ft 9s 6s 29 38 mph 1000.6mb 72f 65f
4:50pm 10.5ft 9s 7s 31 36 mph 1000.2mb 72f 63f
3:50pm 11ft 9s 7s 22 27 mph 1000.3mb 72f 62f
2:50pm 11ft 8s 6s 13 20 mph 1000.3mb 72f 61f
1:50pm 11.5ft 8s 6s 31 40 mph 1001.6mb 72f 61f
12:50pm 11ft 7s 6s 38 49 mph 1001.4mb 72f 62f
11:50am 7.5ft 6s 5s 31 40 mph 1002.1mb 73f 70f
10:50am 7.5ft 6s 5s 34 45 mph 1003.4mb 73f 66f
9:50am 7ft 6s 5s 29 34 mph 1004.1mb 73f 71f
8:50am 6ft 5s 5s 29 36 mph 1005.2mb 73f 71f
7:50am 5.5ft 5s 5s 29 34 mph 1006.1mb 73f 70f
6:50am 5ft 5s 5s 27 34 mph 1007.5mb 72f 69f
5:50am 5ft 6s 5s 25 31 mph 1008.6mb 72f 69f
4:50am 4.5ft 5s 5s 20 25 mph 1009.6mb 72f 69f
3:50am 5ft 7s 5s 13 18 mph 1010.4mb 72f 69f
2:50am 5ft 7s 5s 16 20 mph 1011.1mb 72f 68f
1:50am 4.5ft 7s 5s 18 22 mph 1011.5mb 72f 68f
12:50am 5ft 7s 5s 16 20 mph 1012.6mb 72f 67f
Sun 01/25 11:50pm 5ft 7s 5s 18 22 mph 1013.2mb 72f 67f
10:50pm 5ft 8s 5s 16 20 mph 1014mb 72f 67f
9:50pm 5.5ft 8s 6s 16 22 mph 1014.2mb 72f 66f
8:50pm 5ft 7s 6s 18 22 mph 1014.1mb 72f 66f
7:50pm 5ft 8s 6s 16 20 mph 1014.2mb 72f 66f
6:50pm 5ft 8s 6s 13 20 mph 1014.3mb 72f 65f
5:50pm 5.5ft 8s 6s 13 18 mph 1013.9mb 72f 65f
4:50pm 6.5ft 8s 6s 13 16 mph 1013.8mb 72f 65f
3:50pm 6ft 8s 6s 9 13 mph 1014mb 72f 65f
2:50pm 7ft 8s 6s 9 16 mph 1014.1mb 72f 65f
1:50pm 7.5ft 8s 6s 11 16 mph 1014.1mb 72f 65f
12:50pm 8.5ft 8s 7s 11 16 mph 1014.5mb 72f 64f
11:50am 8.5ft 8s 7s 13 16 mph 1015mb 72f 64f
10:50am 9ft 8s 7s 13 18 mph 1015.7mb 72f 64f
9:50am 9.5ft 9s 7s 13 18 mph 1015.5mb 72f 65f
8:50am 10.5ft 10s 7s 16 20 mph 1014.7mb 72f 64f
7:50am 11ft 10s 7s 16 22 mph 1014mb 72f 64f
6:50am 11ft 10s 7s 16 20 mph 1013.5mb 72f 64f
5:50am 11ft 10s 7s 18 25 mph 1012.6mb 72f 64f
4:50am 12ft 9s 7s 18 25 mph 1012mb 72f 64f
3:50am 11ft 10s 7s 20 25 mph 1011.9mb 72f 63f
2:50am 12.5ft 11s 7s 25 31 mph 1011.4mb 72f 63f
1:50am 13ft 10s 7s 20 27 mph 1011.1mb 72f 63f
12:50am 14.5ft 11s 8s 25 31 mph 1010.4mb 72f 64f
Sat 01/24 11:50pm 15.5ft 10s 8s 27 34 mph 1009.6mb 72f 64f
10:50pm 16ft 11s 8s 27 34 mph 1009.4mb 72f 64f
9:50pm 16ft 10s 8s 27 34 mph 1008.6mb 72f 65f
8:50pm 16.5ft 11s 8s 29 36 mph 1007.9mb 72f 65f
7:50pm 17.5ft 10s 8s 31 38 mph 1007.2mb 72f 65f
6:50pm 18.5ft 10s 8s 31 38 mph 1006.1mb 72f 65f
5:50pm 16ft 11s 7s 34 40 mph 1004.8mb 73f 67f
4:50pm 15.5ft 10s 7s 34 43 mph 1003.5mb 73f 68f
3:50pm 15ft 9s 7s 36 45 mph 1003.1mb 73f 69f
2:50pm 16.5ft 10s 7s 34 43 mph 1002.9mb 73f 66f
1:50pm 15.5ft 9s 7s 34 40 mph 1001.9mb 73f 68f
12:50pm 16ft 8s 7s 38 49 mph 1000.6mb 73f 75f
11:50am 14ft 8s 7s 40 49 mph 1001.7mb 73f 75f
10:50am 12ft 8s 6s 38 47 mph 1003.2mb 73f 74f
9:50am 12ft 7s 6s 36 45 mph 1004.8mb 73f 74f
8:50am 12ft 7s 6s 36 45 mph 1005.6mb 73f 74f
7:50am 11ft 8s 6s 38 47 mph 1006.2mb 73f 74f
6:50am 10.5ft 7s 6s 36 45 mph 1006.7mb 73f 74f
5:50am 10ft 7s 6s 34 45 mph 1007.7mb 73f 73f
4:50am 10ft 7s 6s 34 40 mph 1008.4mb 73f 73f
3:50am 9ft 7s 5s 34 43 mph 1009.5mb 73f 73f
2:50am 8ft 6s 5s 34 43 mph 1011.5mb 73f 72f
1:50am 7.5ft 6s 5s 31 38 mph 1012.2mb 73f 72f
12:50am 8ft 6s 5s 31 40 mph 1013.1mb 73f 71f
Fri 01/23 11:50pm 8ft 6s 5s 31 38 mph 1014.5mb 73f 70f
10:50pm 7.5ft 6s 5s 29 36 mph 1016.1mb 73f 70f
9:50pm 7ft 6s 5s 29 36 mph 1016.8mb 73f 69f
8:50pm 7ft 6s 5s 29 36 mph 1017.6mb 73f 69f
7:50pm 6.5ft 6s 5s 29 34 mph 1018.7mb 73f 69f
6:50pm 5.5ft 6s 5s 27 31 mph 1019.7mb 73f 68f
5:50pm 5.5ft 5s 5s 22 29 mph 1020.6mb 73f 68f